createdAt,value
2018-09-26T00:02:39.735Z,87.5
2018-09-26T00:07:49.906Z,88.4
2018-09-26T00:12:49.746Z,88
2018-09-26T00:17:49.626Z,88.8
2018-09-26T00:22:49.614Z,88.3
2018-09-26T00:27:49.744Z,89.1
2018-09-26T00:32:49.618Z,88.7
2018-09-26T00:37:49.637Z,88.7
2018-09-26T00:42:49.705Z,89.2
2018-09-26T00:47:49.628Z,89.5
2018-09-26T00:52:49.874Z,89.6
2018-09-26T00:57:49.628Z,90
2018-09-26T01:02:49.646Z,89.6
2018-09-26T01:07:51.693Z,89.6
2018-09-26T01:12:51.603Z,88.3
2018-09-26T01:18:03.560Z,88.6
2018-09-26T01:23:03.289Z,89.4
2018-09-26T01:28:03.471Z,89.4
2018-09-26T01:33:03.247Z,89.5
2018-09-26T01:38:03.317Z,87.9
2018-09-26T01:43:03.579Z,87.7
2018-09-26T01:48:03.291Z,88.5
2018-09-26T01:53:03.300Z,88
2018-09-26T01:58:03.326Z,88.8
2018-09-26T02:03:14.904Z,90.2
2018-09-26T02:08:14.606Z,95
2018-09-26T02:13:14.647Z,93.1
2018-09-26T02:18:14.629Z,93
2018-09-26T02:23:14.786Z,92.1
2018-09-26T02:28:14.841Z,93.2
2018-09-26T02:33:14.876Z,93.6
2018-09-26T02:38:15.349Z,92.5
2018-09-26T02:43:15.091Z,92.9
2018-09-26T02:48:27.533Z,91.6
2018-09-26T02:53:27.390Z,93.7
2018-09-26T02:58:27.438Z,92.9
2018-09-26T03:03:27.464Z,92.3
2018-09-26T03:08:27.263Z,92.3
2018-09-26T03:13:27.276Z,90.8
2018-09-26T03:18:27.233Z,92.8
2018-09-26T03:23:27.472Z,91.6
2018-09-26T03:28:27.416Z,90.5
2018-09-26T03:33:27.467Z,91.2
2018-09-26T03:38:27.304Z,91.2
2018-09-26T03:43:27.425Z,92.1
2018-09-26T03:48:27.321Z,91.6
2018-09-26T03:53:27.511Z,90.9
2018-09-26T03:58:40.713Z,90.2
2018-09-26T04:03:40.440Z,90.2
2018-09-26T04:08:40.428Z,90.9
2018-09-26T04:13:40.656Z,90.4
2018-09-26T04:18:40.418Z,92.1
2018-09-26T04:23:40.434Z,91.5
2018-09-26T04:28:40.447Z,91.6
2018-09-26T04:33:40.993Z,91.2
2018-09-26T04:38:40.882Z,92.1
2018-09-26T04:43:53.107Z,90.7
2018-09-26T04:48:52.831Z,91.2
2018-09-26T04:53:52.801Z,90.7
2018-09-26T04:58:52.846Z,91.1
2018-09-26T05:03:53.048Z,91.6
2018-09-26T05:08:53.216Z,92
2018-09-26T05:13:53.070Z,92.3
2018-09-26T05:18:53.058Z,92.2
2018-09-26T05:23:53.050Z,92.6
2018-09-26T05:28:53.069Z,91.7
2018-09-26T05:33:53.039Z,91.9
2018-09-26T05:38:53.052Z,92
2018-09-26T05:43:53.087Z,93
2018-09-26T05:48:53.294Z,91.9
2018-09-26T05:54:04.838Z,92.1
2018-09-26T05:59:04.567Z,94.1
2018-09-26T06:04:04.738Z,93.6
2018-09-26T06:09:04.695Z,92.5
2018-09-26T06:14:04.708Z,91
2018-09-26T06:19:04.765Z,92.5
2018-09-26T06:24:04.769Z,91.8
2018-09-26T06:29:04.928Z,88.9
2018-09-26T06:34:04.637Z,89
2018-09-26T06:39:17.628Z,88.2
2018-09-26T06:44:17.460Z,87.2
2018-09-26T06:49:17.504Z,87.8
2018-09-26T06:54:17.343Z,86.8
2018-09-26T06:59:17.512Z,86.4
2018-09-26T07:04:17.364Z,84.1
2018-09-26T07:09:17.580Z,81.9
2018-09-26T07:14:17.353Z,78.8
2018-09-26T07:19:17.524Z,79.4
2018-09-26T07:24:17.609Z,76.5
2018-09-26T07:29:17.619Z,77.4
2018-09-26T07:34:17.378Z,77.6
2018-09-26T07:39:17.975Z,74.7
2018-09-26T07:44:17.818Z,76.1
2018-09-26T07:49:30.927Z,72.3
2018-09-26T07:54:30.662Z,73.3
2018-09-26T07:59:30.636Z,72.3
2018-09-26T08:04:30.860Z,73.1
2018-09-26T08:09:30.902Z,70.6
2018-09-26T08:14:30.659Z,70.3
2018-09-26T08:19:30.663Z,67.6
2018-09-26T08:24:31.192Z,65.9
2018-09-26T08:29:31.131Z,66
2018-09-26T08:34:46.046Z,63
2018-09-26T08:39:45.794Z,65.2
2018-09-26T08:44:45.903Z,64.5
2018-09-26T08:49:46.008Z,60.4
2018-09-26T08:54:45.784Z,62.6
2018-09-26T08:59:46.244Z,62.5
2018-09-26T09:04:46.008Z,62.5
2018-09-26T09:09:47.210Z,62.9
2018-09-26T09:14:47.420Z,62.5
2018-09-26T09:19:59.435Z,59.9
2018-09-26T09:24:59.270Z,56.8
2018-09-26T09:29:59.395Z,55.8
2018-09-26T09:34:59.283Z,55.4
2018-09-26T09:39:59.278Z,51.8
2018-09-26T09:44:59.153Z,54
2018-09-26T09:49:59.204Z,53.3
2018-09-26T09:54:59.141Z,52.9
2018-09-26T09:59:59.369Z,53.3
2018-09-26T10:05:11.100Z,51.8
2018-09-26T10:10:11.038Z,50.7
2018-09-26T10:15:11.078Z,52
2018-09-26T10:20:11.022Z,51.5
2018-09-26T10:25:10.997Z,51.4
2018-09-26T10:30:10.844Z,52.2
2018-09-26T10:35:11.031Z,50.5
2018-09-26T10:40:11.609Z,53.6
2018-09-26T10:45:11.214Z,51.4
2018-09-26T10:50:24.233Z,50.8
2018-09-26T10:55:23.932Z,49.6
2018-09-26T11:00:23.979Z,49.7
2018-09-26T11:05:23.717Z,48.7
2018-09-26T11:10:24.118Z,48.7
2018-09-26T11:15:24.023Z,48.7
2018-09-26T11:20:24.148Z,48
2018-09-26T11:25:26.567Z,49.4
2018-09-26T11:30:26.402Z,49.2
2018-09-26T11:35:38.798Z,46.6
2018-09-26T11:40:40.126Z,46.7
2018-09-26T11:45:39.020Z,47.3
2018-09-26T11:50:38.803Z,46.9
2018-09-26T11:55:38.782Z,47.1
2018-09-26T12:00:38.533Z,47.3
2018-09-26T12:05:38.563Z,46
2018-09-26T12:10:38.548Z,48
2018-09-26T12:15:38.562Z,46.5
2018-09-26T12:20:38.545Z,46.7
2018-09-26T12:25:38.573Z,45.6
2018-09-26T12:30:38.824Z,46.6
2018-09-26T12:35:38.549Z,46.4
2018-09-26T12:40:38.802Z,44.6
2018-09-26T12:45:50.378Z,45
2018-09-26T12:50:50.111Z,45.1
2018-09-26T12:55:50.098Z,44.4
2018-09-26T13:00:50.083Z,45.7
2018-09-26T13:05:50.128Z,44.4
2018-09-26T13:10:50.109Z,44.9
2018-09-26T13:15:50.095Z,45
2018-09-26T13:20:50.609Z,43.8
2018-09-26T13:25:50.420Z,44.1
2018-09-26T13:31:02.640Z,44.7
2018-09-26T13:36:02.403Z,45.2
2018-09-26T13:41:02.375Z,45.5
2018-09-26T13:46:02.492Z,44.9
2018-09-26T13:51:02.290Z,45.1
2018-09-26T13:56:02.214Z,45.1
2018-09-26T14:01:02.273Z,44.1
2018-09-26T14:06:02.255Z,46
2018-09-26T14:11:02.270Z,44.4
2018-09-26T14:16:02.280Z,44.5
2018-09-26T14:21:02.439Z,45.4
2018-09-26T14:26:02.313Z,46.2
2018-09-26T14:31:02.559Z,46.4
2018-09-26T14:36:02.404Z,47.3
2018-09-26T14:41:14.926Z,47.2
2018-09-26T14:46:15.672Z,46.2
2018-09-26T14:51:14.696Z,46.5
2018-09-26T14:56:14.895Z,47
2018-09-26T15:01:14.463Z,46.5
2018-09-26T15:06:14.544Z,48
2018-09-26T15:11:14.443Z,47.9
2018-09-26T15:16:15.171Z,48
2018-09-26T15:21:14.993Z,48.6
2018-09-26T15:26:27.381Z,48.8
2018-09-26T15:31:26.960Z,48.4
2018-09-26T15:36:27.066Z,49.4
2018-09-26T15:41:27.124Z,49.2
2018-09-26T15:46:27.096Z,48.4
2018-09-26T15:51:27.071Z,49.2
2018-09-26T15:56:27.106Z,49.8
2018-09-26T16:01:30.044Z,50.6
2018-09-26T16:06:29.790Z,51.4
2018-09-26T16:11:39.640Z,53.8
2018-09-26T16:16:40.477Z,55.7
2018-09-26T16:21:39.577Z,56.7
2018-09-26T16:26:39.472Z,56.8
2018-09-26T16:31:39.550Z,57.7
2018-09-26T16:36:39.383Z,59.1
2018-09-26T16:41:39.368Z,61
2018-09-26T16:46:39.389Z,61.2
2018-09-26T16:51:39.572Z,63.7
2018-09-26T16:56:51.696Z,65.9
2018-09-26T17:01:51.558Z,64.4
2018-09-26T17:06:51.455Z,65.8
2018-09-26T17:11:51.554Z,68.8
2018-09-26T17:16:51.619Z,68.3
2018-09-26T17:21:51.460Z,71.5
2018-09-26T17:26:51.444Z,71.6
2018-09-26T17:31:53.153Z,71.4
2018-09-26T17:36:53.119Z,73.5
2018-09-26T17:42:05.355Z,72.8
2018-09-26T17:47:05.254Z,73.8
2018-09-26T17:52:05.523Z,74.9
2018-09-26T17:57:05.055Z,74.8
2018-09-26T18:02:05.143Z,76
2018-09-26T18:07:05.080Z,76.8
2018-09-26T18:12:05.090Z,76.7
2018-09-26T18:17:05.183Z,77.2
2018-09-26T18:22:05.400Z,76.4
2018-09-26T18:27:17.293Z,77.3
2018-09-26T18:32:17.035Z,79
2018-09-26T18:37:17.065Z,80.2
2018-09-26T18:42:17.024Z,78.4
2018-09-26T18:47:17.077Z,81.3
2018-09-26T18:52:17.071Z,80.5
2018-09-26T18:57:17.118Z,82.1
2018-09-26T19:02:18.076Z,81.9
2018-09-26T19:07:17.812Z,83.2
2018-09-26T19:12:30.813Z,82.4
2018-09-26T19:17:30.357Z,81.7
2018-09-26T19:22:30.364Z,81.8
2018-09-26T19:27:30.498Z,83.2
2018-09-26T19:32:30.356Z,82.8
2018-09-26T19:37:30.394Z,83.3
2018-09-26T19:42:30.367Z,83.4
2018-09-26T19:47:31.124Z,83.2
2018-09-26T19:52:31.133Z,85.3
2018-09-26T19:57:42.203Z,84
2018-09-26T20:02:41.902Z,84.2
2018-09-26T20:07:41.877Z,86.8
2018-09-26T20:12:41.985Z,86.6
2018-09-26T20:17:41.915Z,85
2018-09-26T20:22:41.898Z,86.6
2018-09-26T20:27:41.878Z,87
2018-09-26T20:32:41.901Z,87.3
2018-09-26T20:37:42.055Z,86.9
2018-09-26T20:42:53.760Z,89.4
2018-09-26T20:47:53.447Z,88.3
2018-09-26T20:52:53.722Z,88.6
2018-09-26T20:57:53.634Z,89.7
2018-09-26T21:02:53.496Z,87.4
2018-09-26T21:07:53.595Z,89.2
2018-09-26T21:12:53.643Z,88.3
2018-09-26T21:17:54.323Z,87.5
2018-09-26T21:22:53.950Z,87.1
2018-09-26T21:28:06.729Z,88.4
2018-09-26T21:33:06.767Z,87.9
2018-09-26T21:38:06.642Z,90.1
2018-09-26T21:43:06.438Z,90.3
2018-09-26T21:48:06.491Z,89.2
2018-09-26T21:53:06.486Z,89.8
2018-09-26T21:58:06.482Z,90
2018-09-26T22:03:06.501Z,88.9
2018-09-26T22:08:06.520Z,88.8
2018-09-26T22:13:06.669Z,89.9
2018-09-26T22:18:06.591Z,89.3
2018-09-26T22:23:06.486Z,89.1
2018-09-26T22:28:07.179Z,88.5
2018-09-26T22:33:07.109Z,89.6
2018-09-26T22:38:21.207Z,90.8
2018-09-26T22:43:20.869Z,91.8
2018-09-26T22:48:20.933Z,89.9
2018-09-26T22:53:20.786Z,91.2
2018-09-26T22:58:20.734Z,92.1
2018-09-26T23:03:20.744Z,91.4
2018-09-26T23:08:20.900Z,90.7
2018-09-26T23:13:22.735Z,90.6
2018-09-26T23:18:22.477Z,90.9
2018-09-26T23:23:33.201Z,91.3
2018-09-26T23:28:33.043Z,90.6
2018-09-26T23:33:33.091Z,90.2
2018-09-26T23:38:33.128Z,90.5
2018-09-26T23:43:32.979Z,91.1
2018-09-26T23:48:32.956Z,90.4
2018-09-26T23:53:33.345Z,90.7
2018-09-26T23:58:33.260Z,92.4
